Time;durP1;ratioP1;P1;durP2;ratioP2;P2;SDS_P1;SDS_P2;PMS_P1;PMS_P2;Temp;Humidity;BMP_temperature;BMP_pressure;BME280_temperature;BME280_humidity;BME280_pressure;Samples;Min_cycle;Max_cycle;Signal;HPM_P1;HPM_P2
2022/11/14 00:00:06;;;;;;;;;;;230.50;2252.80;;;;;;5020147;28;19956;-81
2022/11/14 00:02:32;;;;;;;;;;;230.50;2252.80;;;;;;5004918;28;19919;-81
2022/11/14 00:04:57;;;;;;;;;;;230.40;2252.80;;;;;;5018453;28;19905;-79
2022/11/14 00:07:23;;;;;;;;;;;205.70;2252.80;;;;;;5021372;28;20267;-80
2022/11/14 00:09:48;;;;;;;;;;;230.40;2252.80;;;;;;5029002;28;19991;-81
2022/11/14 00:12:14;;;;;;;;;;;230.40;2252.80;;;;;;5049989;28;19914;-80
2022/11/14 00:14:39;;;;;;;;;;;230.40;2252.80;;;;;;5017992;28;20481;-81
2022/11/14 00:17:05;;;;;;;;;;;205.70;2252.80;;;;;;5035916;28;19912;-81
2022/11/14 00:19:31;;;;;;;;;;;230.40;2252.80;;;;;;5022632;28;20313;-81
2022/11/14 00:21:56;;;;;;;;;;;205.70;2252.80;;;;;;5026456;28;19905;-80
2022/11/14 00:24:22;;;;;;;;;;;205.70;2252.80;;;;;;5029975;28;19952;-82
2022/11/14 00:26:47;;;;;;;;;;;230.40;2252.80;;;;;;5031142;28;20317;-80
2022/11/14 00:29:14;;;;;;;;;;;205.70;2252.80;;;;;;5023436;28;19963;-80
2022/11/14 00:31:40;;;;;;;;;;;205.60;2252.80;;;;;;5027357;28;19928;-80
2022/11/14 00:34:06;;;;;;;;;;;205.60;2252.80;;;;;;5028161;28;19904;-80
2022/11/14 00:36:31;;;;;;;;;;;205.60;2252.80;;;;;;5022957;28;19959;-81
2022/11/14 00:38:57;;;;;;;;;;;205.60;2252.80;;;;;;5027812;28;19911;-80
2022/11/14 00:41:23;;;;;;;;;;;205.60;2252.80;;;;;;5026453;28;19959;-79
2022/11/14 00:43:49;;;;;;;;;;;205.00;2252.80;;;;;;5028533;28;19970;-79
2022/11/14 00:46:14;;;;;;;;;;;205.50;2252.80;;;;;;5031708;28;20347;-79
2022/11/14 00:48:40;;;;;;;;;;;205.40;2252.80;;;;;;5030899;28;19905;-80
2022/11/14 00:51:06;;;;;;;;;;;205.50;2252.80;;;;;;5028723;28;20359;-80
2022/11/14 00:53:31;;;;;;;;;;;205.40;2252.80;;;;;;5031309;28;19909;-80
2022/11/14 00:55:57;;;;;;;;;;;205.30;2252.80;;;;;;5022596;28;20378;-80
2022/11/14 00:58:23;;;;;;;;;;;205.30;2252.80;;;;;;5029177;28;19955;-80
2022/11/14 01:00:48;;;;;;;;;;;205.30;2252.80;;;;;;5039647;28;19929;-80
2022/11/14 01:03:14;;;;;;;;;;;205.30;2252.80;;;;;;5056520;28;19905;-79
2022/11/14 01:05:43;;;;;;;;;;;205.20;2252.80;;;;;;5056415;28;19904;-80
2022/11/14 01:08:09;;;;;;;;;;;205.20;2252.80;;;;;;5056638;28;20270;-80
2022/11/14 01:10:37;;;;;;;;;;;205.10;2252.80;;;;;;5056355;28;19912;-80
2022/11/14 01:13:03;;;;;;;;;;;205.10;2252.80;;;;;;5056146;28;19956;-80
2022/11/14 01:15:29;;;;;;;;;;;204.90;2252.80;;;;;;5056426;28;19916;-79
2022/11/14 01:17:54;;;;;;;;;;;204.80;2252.80;;;;;;5056380;28;19912;-80
2022/11/14 01:20:20;;;;;;;;;;;180.10;2252.80;;;;;;5056293;28;19927;-79
2022/11/14 01:22:45;;;;;;;;;;;204.80;2252.80;;;;;;5055106;28;19971;-83
2022/11/14 01:25:11;;;;;;;;;;;180.10;2252.80;;;;;;5074318;28;19912;-81
2022/11/14 01:27:36;;;;;;;;;;;180.10;2252.80;;;;;;5056597;28;20385;-81
2022/11/14 01:30:03;;;;;;;;;;;180.00;2252.80;;;;;;5056568;28;19908;-81
2022/11/14 01:32:28;;;;;;;;;;;180.00;2252.80;;;;;;5056539;28;19920;-82
2022/11/14 01:34:54;;;;;;;;;;;180.00;2252.80;;;;;;5056646;28;19998;-81
2022/11/14 01:37:20;;;;;;;;;;;179.90;2252.80;;;;;;5056251;28;19908;-82
2022/11/14 01:39:45;;;;;;;;;;;179.80;2252.80;;;;;;5056805;28;20272;-82
2022/11/14 01:42:11;;;;;;;;;;;179.70;2252.80;;;;;;5056040;28;19911;-81
2022/11/14 01:44:42;;;;;;;;;;;179.60;2252.80;;;;;;5074169;28;19912;-82
2022/11/14 01:47:08;;;;;;;;;;;179.60;2252.80;;;;;;5055599;28;19905;-82
2022/11/14 01:49:38;;;;;;;;;;;179.70;2252.80;;;;;;5073784;28;20041;-81
2022/11/14 01:52:07;;;;;;;;;;;179.80;2252.80;;;;;;5074140;28;20021;-83
2022/11/14 01:54:35;;;;;;;;;;;179.80;2252.80;;;;;;5056072;28;19904;-82
2022/11/14 01:57:02;;;;;;;;;;;179.70;2252.80;;;;;;5074042;28;19911;-82
2022/11/14 01:59:30;;;;;;;;;;;179.80;2252.80;;;;;;5073034;28;19943;-82
2022/11/14 02:01:57;;;;;;;;;;;179.90;2252.80;;;;;;5055523;28;19908;-81
2022/11/14 02:04:27;;;;;;;;;;;180.00;2252.80;;;;;;5056061;28;19905;-82
2022/11/14 02:06:55;;;;;;;;;;;204.80;2252.80;;;;;;5072880;28;19904;-82
2022/11/14 02:09:21;;;;;;;;;;;204.80;2252.80;;;;;;5058881;28;19905;-82
2022/11/14 02:11:47;;;;;;;;;;;180.10;2252.80;;;;;;5073289;28;19919;-81
2022/11/14 02:14:13;;;;;;;;;;;180.10;2252.80;;;;;;5055677;28;20432;-82
2022/11/14 02:16:39;;;;;;;;;;;205.00;2252.80;;;;;;5055862;28;19954;-81
2022/11/14 02:19:05;;;;;;;;;;;204.90;2252.80;;;;;;5073469;28;20382;-82
2022/11/14 02:21:31;;;;;;;;;;;180.10;2252.80;;;;;;5055204;28;19904;-81
2022/11/14 02:23:56;;;;;;;;;;;180.10;2252.80;;;;;;5073006;28;19905;-83
2022/11/14 02:26:22;;;;;;;;;;;179.90;2252.80;;;;;;5055185;28;20686;-82
2022/11/14 02:28:48;;;;;;;;;;;179.80;2252.80;;;;;;5072952;28;19914;-81
2022/11/14 02:31:13;;;;;;;;;;;179.70;2252.80;;;;;;5055171;28;19966;-82
2022/11/14 02:33:39;;;;;;;;;;;179.70;2252.80;;;;;;5073407;28;19949;-82
2022/11/14 02:36:05;;;;;;;;;;;179.80;2252.80;;;;;;5055048;28;19904;-81
2022/11/14 02:38:31;;;;;;;;;;;179.90;2252.80;;;;;;5055452;28;19904;-82
2022/11/14 02:40:58;;;;;;;;;;;179.80;2252.80;;;;;;5055208;28;19912;-82
2022/11/14 02:43:23;;;;;;;;;;;179.70;2252.80;;;;;;5054796;28;19961;-82
2022/11/14 02:45:49;;;;;;;;;;;179.50;2252.80;;;;;;5073320;28;19991;-81
2022/11/14 02:48:14;;;;;;;;;;;179.40;2252.80;;;;;;5073105;28;20394;-83
2022/11/14 02:50:40;;;;;;;;;;;179.50;2252.80;;;;;;5052000;28;19949;-82
2022/11/14 02:53:05;;;;;;;;;;;179.40;2252.80;;;;;;5055116;28;19912;-83
2022/11/14 02:55:31;;;;;;;;;;;179.40;2252.80;;;;;;5055482;28;19904;-82
2022/11/14 02:57:57;;;;;;;;;;;179.40;2252.80;;;;;;5055096;28;19911;-83
2022/11/14 03:00:22;;;;;;;;;;;179.30;2252.80;;;;;;5054745;28;19916;-83
2022/11/14 03:02:48;;;;;;;;;;;179.20;2252.80;;;;;;5055232;28;19947;-82
2022/11/14 03:05:13;;;;;;;;;;;179.30;2252.80;;;;;;5055298;28;19904;-82
2022/11/14 03:07:39;;;;;;;;;;;179.50;2252.80;;;;;;5054992;28;19927;-81
2022/11/14 03:10:05;;;;;;;;;;;179.50;2252.80;;;;;;5052089;28;19905;-81
2022/11/14 03:12:30;;;;;;;;;;;179.70;2252.80;;;;;;5055218;28;19916;-82
2022/11/14 03:14:56;;;;;;;;;;;179.80;2252.80;;;;;;5055027;28;19919;-82
2022/11/14 03:17:23;;;;;;;;;;;179.80;2252.80;;;;;;5055220;28;20558;-82
2022/11/14 03:19:49;;;;;;;;;;;179.90;2252.80;;;;;;5057820;28;19915;-82
2022/11/14 03:22:15;;;;;;;;;;;179.80;2252.80;;;;;;5059312;28;19912;-81
2022/11/14 03:24:40;;;;;;;;;;;179.80;2252.80;;;;;;5059015;28;19911;-81
2022/11/14 03:27:06;;;;;;;;;;;179.80;2252.80;;;;;;5059044;28;19911;-82
2022/11/14 03:29:31;;;;;;;;;;;179.60;2252.80;;;;;;5058409;28;19908;-82
2022/11/14 03:31:57;;;;;;;;;;;179.50;2252.80;;;;;;5058562;28;19917;-82
2022/11/14 03:34:22;;;;;;;;;;;179.50;2252.80;;;;;;5059065;28;20362;-83
2022/11/14 03:36:48;;;;;;;;;;;179.40;2252.80;;;;;;5058920;28;19908;-82
2022/11/14 03:39:13;;;;;;;;;;;179.50;2252.80;;;;;;5058985;28;19904;-82
2022/11/14 03:41:39;;;;;;;;;;;179.70;2252.80;;;;;;5058212;28;19949;-81
2022/11/14 03:44:04;;;;;;;;;;;179.60;2252.80;;;;;;5058330;28;19904;-81
2022/11/14 03:46:30;;;;;;;;;;;179.50;2252.80;;;;;;5058770;28;19911;-82
2022/11/14 03:48:56;;;;;;;;;;;179.50;2252.80;;;;;;5058803;28;20452;-82
2022/11/14 03:51:21;;;;;;;;;;;179.50;2252.80;;;;;;5058160;28;19913;-83
2022/11/14 03:53:47;;;;;;;;;;;179.50;2252.80;;;;;;5058362;28;19908;-82
2022/11/14 03:56:12;;;;;;;;;;;179.70;2252.80;;;;;;5076098;28;19950;-82
2022/11/14 03:58:38;;;;;;;;;;;179.80;2252.80;;;;;;5055680;28;19908;-82
2022/11/14 04:01:03;;;;;;;;;;;179.80;2252.80;;;;;;5057777;28;19952;-82
2022/11/14 04:03:29;;;;;;;;;;;179.70;2252.80;;;;;;5058304;28;19966;-82
2022/11/14 04:05:54;;;;;;;;;;;179.60;2252.80;;;;;;5057338;28;19908;-82
2022/11/14 04:08:20;;;;;;;;;;;179.50;2252.80;;;;;;5075737;28;20427;-82
2022/11/14 04:10:47;;;;;;;;;;;179.40;2252.80;;;;;;5058000;28;19912;-82
2022/11/14 04:13:12;;;;;;;;;;;179.20;2252.80;;;;;;5058074;28;19947;-81
2022/11/14 04:15:38;;;;;;;;;;;179.20;2252.80;;;;;;5076156;28;20358;-82
2022/11/14 04:18:04;;;;;;;;;;;154.50;2252.80;;;;;;5058167;28;20011;-83
2022/11/14 04:20:29;;;;;;;;;;;154.50;2252.80;;;;;;5058166;28;19995;-82
2022/11/14 04:22:55;;;;;;;;;;;179.40;2252.80;;;;;;5075049;28;19911;-83
2022/11/14 04:25:20;;;;;;;;;;;179.40;2252.80;;;;;;5076055;28;20350;-83
2022/11/14 04:27:46;;;;;;;;;;;179.50;2252.80;;;;;;5058001;28;19904;-83
2022/11/14 04:30:11;;;;;;;;;;;179.40;2252.80;;;;;;5056136;28;19916;-82
2022/11/14 04:32:37;;;;;;;;;;;179.30;2252.80;;;;;;5057770;28;19917;-82
2022/11/14 04:35:02;;;;;;;;;;;179.30;2252.80;;;;;;5057325;28;20347;-83
2022/11/14 04:37:28;;;;;;;;;;;179.30;2252.80;;;;;;5057804;28;20015;-83
2022/11/14 04:39:57;;;;;;;;;;;179.40;2252.80;;;;;;5057429;28;19936;-82
2022/11/14 04:42:23;;;;;;;;;;;179.30;2252.80;;;;;;5070030;28;19940;-81
2022/11/14 04:44:49;;;;;;;;;;;154.50;2252.80;;;;;;5057323;28;20358;-82
2022/11/14 04:47:15;;;;;;;;;;;154.50;2252.80;;;;;;5057172;28;19904;-83
2022/11/14 04:49:40;;;;;;;;;;;154.50;2252.80;;;;;;5057377;28;20357;-82
2022/11/14 04:52:06;;;;;;;;;;;179.20;2252.80;;;;;;5075257;28;20263;-83
2022/11/14 04:54:31;;;;;;;;;;;154.50;2252.80;;;;;;5057360;28;19904;-83
2022/11/14 04:56:57;;;;;;;;;;;154.40;2252.80;;;;;;5057594;28;19957;-82
2022/11/14 04:59:22;;;;;;;;;;;154.30;2252.80;;;;;;5056677;28;19916;-82
2022/11/14 05:01:48;;;;;;;;;;;154.50;2252.80;;;;;;5074106;28;20377;-83
2022/11/14 05:04:14;;;;;;;;;;;154.50;2252.80;;;;;;5056758;28;19973;-82
2022/11/14 05:06:39;;;;;;;;;;;154.50;2252.80;;;;;;5056772;28;19905;-82
2022/11/14 05:09:05;;;;;;;;;;;154.50;2252.80;;;;;;5057228;28;19995;-81
2022/11/14 05:11:30;;;;;;;;;;;179.20;2252.80;;;;;;5056977;28;20451;-82
2022/11/14 05:13:56;;;;;;;;;;;179.20;2252.80;;;;;;5057035;28;19908;-81
2022/11/14 05:16:21;;;;;;;;;;;154.50;2252.80;;;;;;5056386;28;19905;-81
2022/11/14 05:18:47;;;;;;;;;;;154.50;2252.80;;;;;;5057216;28;19905;-83
2022/11/14 05:21:13;;;;;;;;;;;154.50;2252.80;;;;;;5056812;28;19991;-82
2022/11/14 05:23:39;;;;;;;;;;;154.50;2252.80;;;;;;5057234;28;19909;-82
2022/11/14 05:26:06;;;;;;;;;;;154.50;2252.80;;;;;;5040558;28;19904;-83
2022/11/14 05:28:32;;;;;;;;;;;154.50;2252.80;;;;;;5056936;28;19908;-83
2022/11/14 05:31:02;;;;;;;;;;;179.20;2252.80;;;;;;5056901;28;20384;-83
2022/11/14 05:33:27;;;;;;;;;;;179.40;2252.80;;;;;;5056851;28;19953;-83
2022/11/14 05:35:53;;;;;;;;;;;179.30;2252.80;;;;;;5056744;28;19971;-82
2022/11/14 05:38:19;;;;;;;;;;;179.20;2252.80;;;;;;5056434;28;20405;-82
2022/11/14 05:40:44;;;;;;;;;;;179.20;2252.80;;;;;;5056732;28;20307;-81
2022/11/14 05:43:10;;;;;;;;;;;154.50;2252.80;;;;;;5073703;28;19905;-83
2022/11/14 05:45:35;;;;;;;;;;;154.50;2252.80;;;;;;5056619;28;20272;-83
2022/11/14 05:48:01;;;;;;;;;;;154.50;2252.80;;;;;;5056357;28;19958;-81
2022/11/14 05:50:26;;;;;;;;;;;154.50;2252.80;;;;;;5056562;28;19914;-82
2022/11/14 05:52:52;;;;;;;;;;;179.20;2252.80;;;;;;5055582;28;20122;-82
2022/11/14 05:55:17;;;;;;;;;;;154.50;2252.80;;;;;;5056409;28;19947;-83
2022/11/14 05:57:43;;;;;;;;;;;154.40;2252.80;;;;;;5055955;28;19908;-82
2022/11/14 06:00:09;;;;;;;;;;;154.40;2252.80;;;;;;5056005;28;19920;-82
2022/11/14 06:02:34;;;;;;;;;;;154.50;2252.80;;;;;;5055303;28;19954;-83
2022/11/14 06:05:00;;;;;;;;;;;154.50;2252.80;;;;;;5056103;28;19927;-82
2022/11/14 06:07:25;;;;;;;;;;;179.20;2252.80;;;;;;5036914;28;19904;-82
2022/11/14 06:09:51;;;;;;;;;;;179.30;2252.80;;;;;;5036554;28;20365;-81
2022/11/14 06:12:17;;;;;;;;;;;179.40;2252.80;;;;;;5036323;28;20011;-83
2022/11/14 06:14:42;;;;;;;;;;;179.40;2252.80;;;;;;5036313;28;19905;-83
2022/11/14 06:17:08;;;;;;;;;;;179.50;2252.80;;;;;;5036631;28;19912;-79
2022/11/14 06:19:33;;;;;;;;;;;179.50;2252.80;;;;;;5036100;28;19905;-81
2022/11/14 06:21:59;;;;;;;;;;;179.50;2252.80;;;;;;5036734;28;20022;-83
2022/11/14 06:24:24;;;;;;;;;;;179.70;2252.80;;;;;;5055057;28;19905;-82
2022/11/14 06:26:50;;;;;;;;;;;179.60;2252.80;;;;;;5054922;28;19938;-80
2022/11/14 06:29:15;;;;;;;;;;;179.60;2252.80;;;;;;5054551;28;20378;-80
2022/11/14 06:31:41;;;;;;;;;;;179.50;2252.80;;;;;;5046421;28;20370;-80
2022/11/14 06:34:07;;;;;;;;;;;179.60;2252.80;;;;;;5053661;28;19905;-82
2022/11/14 06:36:32;;;;;;;;;;;179.60;2252.80;;;;;;5033271;28;20425;-79
2022/11/14 06:38:58;;;;;;;;;;;179.50;2252.80;;;;;;5031222;28;20035;-79
2022/11/14 06:41:23;;;;;;;;;;;179.60;2252.80;;;;;;5048177;28;19917;-79
2022/11/14 06:43:54;;;;;;;;;;;179.60;2252.80;;;;;;5026750;28;19909;-81
2022/11/14 06:46:20;;;;;;;;;;;179.60;2252.80;;;;;;5049064;28;19905;-81
2022/11/14 06:48:47;;;;;;;;;;;179.70;2252.80;;;;;;5055613;28;19916;-81
2022/11/14 06:51:13;;;;;;;;;;;179.70;2252.80;;;;;;5053843;28;19912;-81
2022/11/14 06:53:39;;;;;;;;;;;179.80;2252.80;;;;;;5028379;28;19991;-80
2022/11/14 06:56:06;;;;;;;;;;;179.90;2252.80;;;;;;5035969;28;19990;-82
2022/11/14 06:58:33;;;;;;;;;;;179.90;2252.80;;;;;;5047708;28;19996;-81
2022/11/14 07:01:03;;;;;;;;;;;180.00;2252.80;;;;;;5022125;28;19929;-80
2022/11/14 07:03:29;;;;;;;;;;;180.00;2252.80;;;;;;5035377;28;20337;-84
2022/11/14 07:05:59;;;;;;;;;;;180.10;2252.80;;;;;;5035174;28;19995;-81
2022/11/14 07:08:24;;;;;;;;;;;204.80;2252.80;;;;;;5045437;28;19915;-84
2022/11/14 07:10:50;;;;;;;;;;;204.90;2252.80;;;;;;5026321;28;19909;-83
2022/11/14 07:13:15;;;;;;;;;;;205.00;2252.80;;;;;;5035351;28;19959;-81
2022/11/14 07:15:51;;;;;;;;;;;205.20;2252.80;;;;;;5039695;28;19920;-80
2022/11/14 07:18:16;;;;;;;;;;;205.20;2252.80;;;;;;5029180;28;19912;-85
2022/11/14 07:20:42;;;;;;;;;;;205.30;2252.80;;;;;;5060916;28;19909;-86
2022/11/14 07:23:07;;;;;;;;;;;205.50;2252.80;;;;;;5040362;28;19904;-85
2022/11/14 07:25:33;;;;;;;;;;;205.60;2252.80;;;;;;5055384;28;19911;-82
2022/11/14 07:27:59;;;;;;;;;;;205.70;2252.80;;;;;;5026966;28;19909;-85
2022/11/14 07:30:24;;;;;;;;;;;230.50;2252.80;;;;;;5046158;28;19912;-81
2022/11/14 07:32:53;;;;;;;;;;;230.60;2252.80;;;;;;5035403;28;19921;-80
2022/11/14 07:35:19;;;;;;;;;;;230.80;2252.80;;;;;;5035105;28;19931;-80
2022/11/14 07:37:45;;;;;;;;;;;230.80;2252.80;;;;;;5045089;28;20341;-80
2022/11/14 07:40:10;;;;;;;;;;;231.00;2252.80;;;;;;5054084;28;20065;-79
2022/11/14 07:42:36;;;;;;;;;;;231.10;2252.80;;;;;;5053896;28;19905;-84
2022/11/14 07:45:02;;;;;;;;;;;231.10;2252.80;;;;;;5054325;28;20427;-81
2022/11/14 07:47:27;;;;;;;;;;;231.30;2252.80;;;;;;5054064;28;19908;-79
2022/11/14 07:49:53;;;;;;;;;;;256.00;2252.80;;;;;;5055324;28;19912;-81
2022/11/14 07:52:18;;;;;;;;;;;256.10;2252.80;;;;;;5047460;28;20296;-77
2022/11/14 07:54:44;;;;;;;;;;;256.20;2252.80;;;;;;5048819;28;19943;-78
2022/11/14 07:57:09;;;;;;;;;;;256.30;2252.80;;;;;;5035133;28;19905;-82
2022/11/14 07:59:35;;;;;;;;;;;256.40;2252.80;;;;;;5024759;28;20401;-81
2022/11/14 08:02:00;;;;;;;;;;;256.60;2252.80;;;;;;5054956;28;19912;-83
2022/11/14 08:04:26;;;;;;;;;;;256.60;2252.80;;;;;;5055372;28;19987;-82
2022/11/14 08:06:51;;;;;;;;;;;256.70;2252.80;;;;;;5058619;28;19908;-84
2022/11/14 08:09:17;;;;;;;;;;;256.80;2252.80;;;;;;5058083;28;19929;-82
2022/11/14 08:11:49;;;;;;;;;;;256.90;2252.80;;;;;;5057822;28;20359;-79
2022/11/14 08:14:15;;;;;;;;;;;281.60;2278.40;;;;;;5057831;28;19905;-82
2022/11/14 08:16:40;;;;;;;;;;;281.70;2278.40;;;;;;5050059;28;19909;-81
2022/11/14 08:19:06;;;;;;;;;;;281.80;2278.40;;;;;;5038709;28;19914;-83
2022/11/14 08:21:32;;;;;;;;;;;282.00;2278.40;;;;;;5045481;28;19908;-81
2022/11/14 08:23:57;;;;;;;;;;;282.00;2278.40;;;;;;5058509;28;19953;-80
2022/11/14 08:26:23;;;;;;;;;;;282.20;2278.40;;;;;;5053828;28;19905;-82
2022/11/14 08:28:53;;;;;;;;;;;282.20;2278.40;;;;;;5038158;28;19959;-81
2022/11/14 08:31:19;;;;;;;;;;;282.30;2278.40;;;;;;5034372;28;19933;-82
2022/11/14 08:33:44;;;;;;;;;;;282.40;2278.40;;;;;;5037571;28;19927;-83
2022/11/14 08:36:10;;;;;;;;;;;282.50;2278.40;;;;;;5044328;28;20358;-86
2022/11/14 08:38:36;;;;;;;;;;;307.20;2304.00;;;;;;5051374;28;19951;-85
2022/11/14 08:41:02;;;;;;;;;;;307.20;2304.00;;;;;;5038518;28;20194;-87
2022/11/14 08:43:28;;;;;;;;;;;307.30;2304.00;;;;;;5038387;28;20000;-85
2022/11/14 08:45:58;;;;;;;;;;;307.30;2304.00;;;;;;5029235;28;20431;-85
2022/11/14 08:48:23;;;;;;;;;;;307.50;2304.00;;;;;;5051657;28;19936;-87
2022/11/14 08:50:49;;;;;;;;;;;307.50;2304.00;;;;;;5037907;28;19956;-85
2022/11/14 08:53:14;;;;;;;;;;;307.60;2304.00;;;;;;5039451;28;19909;-88
2022/11/14 08:55:44;;;;;;;;;;;307.70;2304.00;;;;;;5043829;28;19908;-89
2022/11/14 08:58:09;;;;;;;;;;;307.70;2304.00;;;;;;5037841;28;19909;-88
2022/11/14 09:00:35;;;;;;;;;;;307.80;2304.00;;;;;;5041182;28;19977;-88
2022/11/14 09:03:05;;;;;;;;;;;307.90;2304.00;;;;;;5077534;28;19908;-91
2022/11/14 09:05:31;;;;;;;;;;;308.10;2304.00;;;;;;5062800;28;19986;-89
2022/11/14 09:07:57;;;;;;;;;;;332.80;2329.60;;;;;;5060280;28;20362;-89
2022/11/14 09:10:23;;;;;;;;;;;332.90;2329.60;;;;;;5047347;28;19956;-87
2022/11/14 09:12:49;;;;;;;;;;;;;;;;;;5057795;28;19951;-88
2022/11/14 09:15:14;;;;;;;;;;;333.20;2329.60;;;;;;5041278;28;19932;-89
2022/11/14 09:17:40;;;;;;;;;;;333.40;2329.60;;;;;;5037295;28;19905;-88
2022/11/14 09:20:05;;;;;;;;;;;333.60;2329.60;;;;;;5048745;28;20328;-88
2022/11/14 09:22:31;;;;;;;;;;;333.70;2329.60;;;;;;5057025;28;19908;-87
2022/11/14 09:24:57;;;;;;;;;;;358.50;2329.60;;;;;;5056546;28;19995;-87
2022/11/14 09:27:25;;;;;;;;;;;358.60;2329.60;;;;;;5057031;28;19958;-87
2022/11/14 09:29:50;;;;;;;;;;;358.80;2329.60;;;;;;5049907;28;20094;-86
2022/11/14 09:32:16;;;;;;;;;;;359.00;2329.60;;;;;;5037676;28;19923;-86
2022/11/14 09:34:43;;;;;;;;;;;359.00;2329.60;;;;;;5069068;28;19904;-86
2022/11/14 09:37:09;;;;;;;;;;;359.10;2329.60;;;;;;5049238;28;19916;-88
2022/11/14 09:39:39;;;;;;;;;;;384.00;2329.60;;;;;;5038513;28;19909;-87
2022/11/14 09:42:23;;;;;;;;;;;384.10;2329.60;;;;;;5042028;28;19944;-86
2022/11/14 09:44:53;;;;;;;;;;;384.30;2329.60;;;;;;5047009;28;19905;-87
2022/11/14 09:47:22;;;;;;;;;;;384.50;2329.60;;;;;;5030306;28;19909;-86
2022/11/14 09:49:50;;;;;;;;;;;384.70;2329.60;;;;;;5030746;28;20015;-87
2022/11/14 09:52:34;;;;;;;;;;;384.90;2329.60;;;;;;5041191;28;19923;-85
2022/11/14 09:55:00;;;;;;;;;;;;;;;;;;5056563;28;19912;-81
2022/11/14 09:57:26;;;;;;;;;;;409.70;2355.20;;;;;;5029318;28;19904;-85
2022/11/14 09:59:52;;;;;;;;;;;410.00;2355.20;;;;;;5032920;28;19913;-87
2022/11/14 10:02:36;;;;;;;;;;;410.20;2355.20;;;;;;5021618;28;20274;-86
2022/11/14 10:05:01;;;;;;;;;;;410.30;2355.20;;;;;;5049691;28;19991;-87
2022/11/14 10:07:50;;;;;;;;;;;410.40;2355.20;;;;;;5049414;28;19943;-86
2022/11/14 10:10:28;;;;;;;;;;;410.30;2355.20;;;;;;4961201;28;19907;-87
2022/11/14 10:12:54;;;;;;;;;;;435.20;2355.20;;;;;;4955792;28;20309;-87
2022/11/14 10:15:35;;;;;;;;;;;435.20;2355.20;;;;;;4974511;28;19910;-86
2022/11/14 10:18:13;;;;;;;;;;;435.30;2355.20;;;;;;4967805;28;19912;-86
2022/11/14 10:21:06;;;;;;;;;;;435.60;2355.20;;;;;;4972044;28;19942;-86
2022/11/14 10:23:38;;;;;;;;;;;435.80;2355.20;;;;;;4937509;28;19957;-86
2022/11/14 10:26:03;;;;;;;;;;;;;;;;;;4951253;28;19905;-86
2022/11/14 10:28:29;;;;;;;;;;;;;;;;;;4979538;28;20396;-86
2022/11/14 10:31:04;;;;;;;;;;;460.80;2380.80;;;;;;4961668;28;19925;-86
2022/11/14 10:33:30;;;;;;;;;;;;;;;;;;4978133;28;20027;-86
2022/11/14 10:36:14;;;;;;;;;;;460.90;2380.80;;;;;;4984990;28;19906;-86
2022/11/14 10:38:55;;;;;;;;;;;461.00;2380.80;;;;;;4985984;28;19929;-86
2022/11/14 10:41:21;;;;;;;;;;;461.20;2380.80;;;;;;4992152;28;19993;-86
2022/11/14 10:43:48;;;;;;;;;;;461.10;2355.20;;;;;;4960588;28;19907;-81
2022/11/14 10:46:14;;;;;;;;;;;;;;;;;;4980608;28;19905;-78
2022/11/14 10:48:41;;;;;;;;;;;461.40;2329.60;;;;;;5055010;28;19909;-80
2022/11/14 10:51:14;;;;;;;;;;;461.40;2304.00;;;;;;5034458;28;19912;-80
2022/11/14 10:53:39;;;;;;;;;;;461.40;2304.00;;;;;;5035344;28;20046;-78
2022/11/14 10:56:05;;;;;;;;;;;461.30;2304.00;;;;;;5035791;28;19966;-82
2022/11/14 10:58:30;;;;;;;;;;;461.50;2252.80;;;;;;5033354;28;19967;-81
2022/11/14 11:01:16;;;;;;;;;;;461.50;2201.60;;;;;;5045887;28;19927;-80
2022/11/14 11:03:42;;;;;;;;;;;461.50;2227.20;;;;;;5048831;28;19908;-87
2022/11/14 11:06:23;;;;;;;;;;;461.50;2227.20;;;;;;5037351;28;19918;-85
2022/11/14 11:11:32;;;;;;;;;;;486.50;2150.40;;;;;;5063821;28;19927;-83
2022/11/14 11:13:59;;;;;;;;;;;486.50;2099.20;;;;;;5023467;28;19909;-83
2022/11/14 11:16:25;;;;;;;;;;;486.40;2099.20;;;;;;5015655;28;19944;-82
2022/11/14 11:18:51;;;;;;;;;;;486.60;2099.20;;;;;;5043892;28;20410;-79
2022/11/14 11:21:18;;;;;;;;;;;486.60;2073.60;;;;;;5055030;28;19963;-80
2022/11/14 11:23:51;;;;;;;;;;;486.50;2073.60;;;;;;5055550;28;19965;-84
2022/11/14 11:26:18;;;;;;;;;;;486.70;2073.60;;;;;;5055583;28;19908;-83
2022/11/14 11:28:59;;;;;;;;;;;486.60;2048.00;;;;;;5055631;28;19912;-83
2022/11/14 11:31:24;;;;;;;;;;;486.70;1996.80;;;;;;5021368;28;20011;-84
2022/11/14 11:33:50;;;;;;;;;;;486.80;1996.80;;;;;;5037588;28;19959;-83
2022/11/14 11:36:21;;;;;;;;;;;486.60;1996.80;;;;;;5054631;28;19904;-83
2022/11/14 11:38:46;;;;;;;;;;;486.70;2048.00;;;;;;5036198;28;20377;-82
2022/11/14 11:41:12;;;;;;;;;;;486.70;2022.40;;;;;;5053833;28;19904;-82
2022/11/14 11:43:50;;;;;;;;;;;486.60;2048.00;;;;;;5050875;28;19912;-83
2022/11/14 11:46:45;;;;;;;;;;;486.70;2022.40;;;;;;5057604;28;19905;-82
2022/11/14 11:49:19;;;;;;;;;;;486.90;1996.80;;;;;;4938119;29;19906;-82
2022/11/14 11:51:45;;;;;;;;;;;486.80;1945.60;;;;;;4937992;28;20472;-80
2022/11/14 11:54:23;;;;;;;;;;;486.90;1996.80;;;;;;4962771;28;20006;-79
2022/11/14 11:56:51;;;;;;;;;;;486.90;1971.20;;;;;;4925928;29;19929;-82
2022/11/14 11:59:17;;;;;;;;;;;486.90;1945.60;;;;;;4938304;29;19910;-79
2022/11/14 12:01:42;;;;;;;;;;;486.80;1971.20;;;;;;4938566;29;19970;-79
2022/11/14 12:04:08;;;;;;;;;;;486.80;1971.20;;;;;;4934820;29;20009;-82
2022/11/14 12:06:39;;;;;;;;;;;486.80;1945.60;;;;;;4941103;29;20395;-82
2022/11/14 12:09:16;;;;;;;;;;;486.70;1971.20;;;;;;4930489;29;19934;-82
2022/11/14 12:11:47;;;;;;;;;;;486.70;1971.20;;;;;;4935258;29;19915;-82
2022/11/14 12:14:21;;;;;;;;;;;486.70;1996.80;;;;;;4947849;29;19906;-81
2022/11/14 12:16:50;;;;;;;;;;;486.60;1996.80;;;;;;4936491;29;19965;-82
2022/11/14 12:19:15;;;;;;;;;;;486.50;1996.80;;;;;;4921649;29;19918;-83
2022/11/14 12:22:10;;;;;;;;;;;486.50;2022.40;;;;;;4928596;29;19915;-81
2022/11/14 12:24:54;;;;;;;;;;;486.50;2073.60;;;;;;4899985;28;19907;-81
2022/11/14 12:27:30;;;;;;;;;;;486.40;2022.40;;;;;;4968695;28;19910;-82
2022/11/14 12:30:08;;;;;;;;;;;461.70;1996.80;;;;;;4974864;28;19909;-82
2022/11/14 12:32:45;;;;;;;;;;;461.70;2048.00;;;;;;4980198;28;19918;-81
2022/11/14 12:35:38;;;;;;;;;;;461.70;1996.80;;;;;;4974986;28;20354;-81
2022/11/14 12:38:11;;;;;;;;;;;461.70;2048.00;;;;;;4962198;28;19906;-82
2022/11/14 12:40:38;;;;;;;;;;;461.70;2022.40;;;;;;4970496;28;19969;-81
2022/11/14 12:43:14;;;;;;;;;;;461.70;2048.00;;;;;;4967309;28;19945;-82
2022/11/14 12:45:39;;;;;;;;;;;461.60;2048.00;;;;;;4967776;28;19941;-84
2022/11/14 12:48:19;;;;;;;;;;;461.50;2048.00;;;;;;4988391;28;19952;-83
2022/11/14 12:50:45;;;;;;;;;;;461.50;2073.60;;;;;;4977498;28;19913;-87
2022/11/14 12:53:34;;;;;;;;;;;461.50;2073.60;;;;;;4967261;28;19930;-88
2022/11/14 12:56:11;;;;;;;;;;;461.50;2073.60;;;;;;4980602;28;19906;-87
2022/11/14 12:58:45;;;;;;;;;;;461.40;2073.60;;;;;;4970100;28;19911;-86
2022/11/14 13:01:23;;;;;;;;;;;461.50;2124.80;;;;;;5012614;28;19978;-85
2022/11/14 13:03:49;;;;;;;;;;;461.40;2073.60;;;;;;5050042;28;19995;-84
2022/11/14 13:06:30;;;;;;;;;;;461.40;2124.80;;;;;;5039429;28;19944;-85
2022/11/14 13:09:14;;;;;;;;;;;461.40;2124.80;;;;;;5034216;28;19904;-86
2022/11/14 13:22:41;;;;;;;;;;;461.40;2124.80;;;;;;5051130;28;19916;-86
2022/11/14 13:25:10;;;;;;;;;;;461.40;2201.60;;;;;;5051881;28;20274;-83
2022/11/14 13:27:36;;;;;;;;;;;461.40;2124.80;;;;;;5033594;28;19992;-82
2022/11/14 13:30:06;;;;;;;;;;;461.30;2150.40;;;;;;5033972;28;19911;-82
2022/11/14 13:32:41;;;;;;;;;;;461.30;2150.40;;;;;;5033692;28;19921;-83
2022/11/14 13:35:10;;;;;;;;;;;461.20;2227.20;;;;;;5035345;28;19905;-82
2022/11/14 13:37:58;;;;;;;;;;;461.20;2201.60;;;;;;5053116;28;19908;-81
2022/11/14 13:40:27;;;;;;;;;;;461.20;2227.20;;;;;;4965874;28;20346;-83
2022/11/14 13:42:55;;;;;;;;;;;461.20;2150.40;;;;;;4994335;28;19905;-84
2022/11/14 13:45:30;;;;;;;;;;;461.10;2227.20;;;;;;4978992;28;19975;-86
2022/11/14 13:47:56;;;;;;;;;;;461.40;2176.00;;;;;;4969855;28;19906;-86
2022/11/14 13:50:25;;;;;;;;;;;461.10;2227.20;;;;;;4973085;28;19907;-78
2022/11/14 13:52:51;;;;;;;;;;;461.00;2278.40;;;;;;4970264;28;19918;-80
2022/11/14 13:55:18;;;;;;;;;;;461.00;2278.40;;;;;;4964778;28;19924;-78
2022/11/14 13:57:51;;;;;;;;;;;460.90;2304.00;;;;;;4972994;28;19945;-78
2022/11/14 14:00:17;;;;;;;;;;;460.80;2355.20;;;;;;4975145;28;21485;-77